sensor_id;sensor_type;location;lat;lon;timestamp;pressure;altitude;pressure_sealevel;temperature;humidity
44934;BME280;30667;43.614;1.442;2022-08-01T00:00:11;100210.75;;;25.91;54.37
44934;BME280;30667;43.614;1.442;2022-08-01T00:02:37;100214.59;;;25.83;54.63
44934;BME280;30667;43.614;1.442;2022-08-01T00:05:04;100221.75;;;25.84;54.82
44934;BME280;30667;43.614;1.442;2022-08-01T00:07:31;100217.72;;;25.78;55.50
44934;BME280;30667;43.614;1.442;2022-08-01T00:09:57;100206.22;;;25.76;55.10
44934;BME280;30667;43.614;1.442;2022-08-01T00:12:23;100209.75;;;25.72;55.12
44934;BME280;30667;43.614;1.442;2022-08-01T00:14:48;100210.19;;;25.78;55.57
44934;BME280;30667;43.614;1.442;2022-08-01T00:17:14;100213.72;;;25.75;55.81
44934;BME280;30667;43.614;1.442;2022-08-01T00:19:39;100214.09;;;25.73;55.88
44934;BME280;30667;43.614;1.442;2022-08-01T00:22:05;100211.66;;;25.68;56.13
44934;BME280;30667;43.614;1.442;2022-08-01T00:24:30;100208.84;;;25.65;56.47
44934;BME280;30667;43.614;1.442;2022-08-01T00:26:56;100208.88;;;25.68;56.59
44934;BME280;30667;43.614;1.442;2022-08-01T00:29:21;100216.75;;;25.63;57.06
44934;BME280;30667;43.614;1.442;2022-08-01T00:31:47;100213.88;;;25.55;57.55
44934;BME280;30667;43.614;1.442;2022-08-01T00:34:12;100213.88;;;25.55;57.61
44934;BME280;30667;43.614;1.442;2022-08-01T00:36:38;100214.66;;;25.56;57.83
44934;BME280;30667;43.614;1.442;2022-08-01T00:39:03;100211.09;;;25.55;58.00
44934;BME280;30667;43.614;1.442;2022-08-01T00:41:28;100220.97;;;25.53;58.31
44934;BME280;30667;43.614;1.442;2022-08-01T00:43:54;100218.19;;;25.53;58.96
44934;BME280;30667;43.614;1.442;2022-08-01T00:46:20;100216.56;;;25.48;59.42
44934;BME280;30667;43.614;1.442;2022-08-01T00:48:46;100210.91;;;25.41;60.16
44934;BME280;30667;43.614;1.442;2022-08-01T00:51:11;100202.88;;;25.32;61.09
44934;BME280;30667;43.614;1.442;2022-08-01T00:53:39;100198.50;;;25.31;61.71
44934;BME280;30667;43.614;1.442;2022-08-01T00:56:04;100193.75;;;25.32;61.98
44934;BME280;30667;43.614;1.442;2022-08-01T00:58:30;100200.84;;;25.29;62.84
44934;BME280;30667;43.614;1.442;2022-08-01T01:00:58;100199.13;;;25.21;63.72
44934;BME280;30667;43.614;1.442;2022-08-01T01:03:23;100198.31;;;25.20;64.46
44934;BME280;30667;43.614;1.442;2022-08-01T01:08:35;100194.25;;;25.14;66.99
44934;BME280;30667;43.614;1.442;2022-08-01T01:11:28;100195.28;;;25.02;68.71
44934;BME280;30667;43.614;1.442;2022-08-01T01:14:10;100191.25;;;25.00;69.67
44934;BME280;30667;43.614;1.442;2022-08-01T01:16:40;100199.88;;;24.95;70.20
44934;BME280;30667;43.614;1.442;2022-08-01T01:19:11;100198.28;;;24.94;70.85
44934;BME280;30667;43.614;1.442;2022-08-01T01:24:26;100203.28;;;24.84;72.79
44934;BME280;30667;43.614;1.442;2022-08-01T01:27:01;100206.84;;;24.85;73.28
44934;BME280;30667;43.614;1.442;2022-08-01T01:29:35;100198.88;;;24.80;73.93
44934;BME280;30667;43.614;1.442;2022-08-01T01:32:07;100206.72;;;24.78;74.35
44934;BME280;30667;43.614;1.442;2022-08-01T01:34:37;100207.78;;;24.70;75.66
44934;BME280;30667;43.614;1.442;2022-08-01T01:37:09;100205.75;;;24.66;76.03
44934;BME280;30667;43.614;1.442;2022-08-01T01:39:37;100207.66;;;24.62;76.62
44934;BME280;30667;43.614;1.442;2022-08-01T01:42:06;100204.91;;;24.62;76.70
44934;BME280;30667;43.614;1.442;2022-08-01T01:44:32;100201.97;;;24.55;77.47
44934;BME280;30667;43.614;1.442;2022-08-01T01:46:59;100198.06;;;24.56;77.99
44934;BME280;30667;43.614;1.442;2022-08-01T01:49:27;100204.72;;;24.55;78.22
44934;BME280;30667;43.614;1.442;2022-08-01T01:51:55;100203.16;;;24.54;78.31
44934;BME280;30667;43.614;1.442;2022-08-01T01:54:23;100202.25;;;24.50;79.01
44934;BME280;30667;43.614;1.442;2022-08-01T01:56:50;100197.88;;;24.49;79.09
44934;BME280;30667;43.614;1.442;2022-08-01T01:59:21;100211.28;;;24.47;79.37
44934;BME280;30667;43.614;1.442;2022-08-01T02:01:51;100208.09;;;24.45;79.51
44934;BME280;30667;43.614;1.442;2022-08-01T02:04:20;100198.09;;;24.37;79.96
44934;BME280;30667;43.614;1.442;2022-08-01T02:06:46;100201.59;;;24.34;80.79
44934;BME280;30667;43.614;1.442;2022-08-01T02:09:16;100203.47;;;24.29;80.88
44934;BME280;30667;43.614;1.442;2022-08-01T02:11:44;100207.69;;;24.23;81.39
44934;BME280;30667;43.614;1.442;2022-08-01T02:14:12;100203.78;;;24.24;81.57
44934;BME280;30667;43.614;1.442;2022-08-01T02:16:40;100204.13;;;24.23;81.87
44934;BME280;30667;43.614;1.442;2022-08-01T02:19:06;100198.97;;;24.21;81.80
44934;BME280;30667;43.614;1.442;2022-08-01T02:21:36;100194.97;;;24.19;82.05
44934;BME280;30667;43.614;1.442;2022-08-01T02:26:47;100190.03;;;24.08;83.20
44934;BME280;30667;43.614;1.442;2022-08-01T02:29:18;100197.91;;;24.06;83.25
44934;BME280;30667;43.614;1.442;2022-08-01T02:31:48;100195.88;;;24.03;83.58
44934;BME280;30667;43.614;1.442;2022-08-01T02:34:17;100194.19;;;23.99;84.00
44934;BME280;30667;43.614;1.442;2022-08-01T02:36:44;100196.91;;;23.95;84.39
44934;BME280;30667;43.614;1.442;2022-08-01T02:39:14;100205.63;;;23.97;84.23
44934;BME280;30667;43.614;1.442;2022-08-01T02:41:43;100199.16;;;23.89;84.79
44934;BME280;30667;43.614;1.442;2022-08-01T02:44:15;100199.88;;;23.86;85.06
44934;BME280;30667;43.614;1.442;2022-08-01T02:46:47;100193.81;;;23.81;85.48
44934;BME280;30667;43.614;1.442;2022-08-01T02:49:16;100198.16;;;23.82;85.47
44934;BME280;30667;43.614;1.442;2022-08-01T02:51:46;100195.34;;;23.78;85.79
44934;BME280;30667;43.614;1.442;2022-08-01T02:54:15;100199.97;;;23.74;86.05
44934;BME280;30667;43.614;1.442;2022-08-01T02:56:41;100201.16;;;23.73;86.20
44934;BME280;30667;43.614;1.442;2022-08-01T02:59:14;100199.13;;;23.70;86.58
44934;BME280;30667;43.614;1.442;2022-08-01T03:01:42;100209.28;;;23.66;86.84
44934;BME280;30667;43.614;1.442;2022-08-01T03:04:10;100207.22;;;23.63;87.13
44934;BME280;30667;43.614;1.442;2022-08-01T03:06:38;100200.03;;;23.58;87.38
44934;BME280;30667;43.614;1.442;2022-08-01T03:09:06;100206.66;;;23.53;87.76
44934;BME280;30667;43.614;1.442;2022-08-01T03:11:32;100205.47;;;23.54;87.76
44934;BME280;30667;43.614;1.442;2022-08-01T03:14:02;100199.53;;;23.52;87.50
44934;BME280;30667;43.614;1.442;2022-08-01T03:16:31;100206.56;;;23.50;88.07
44934;BME280;30667;43.614;1.442;2022-08-01T03:19:00;100206.13;;;23.48;88.17
44934;BME280;30667;43.614;1.442;2022-08-01T03:21:27;100203.56;;;23.39;88.80
44934;BME280;30667;43.614;1.442;2022-08-01T03:23:55;100201.09;;;23.34;89.08
44934;BME280;30667;43.614;1.442;2022-08-01T03:26:26;100201.53;;;23.36;89.35
44934;BME280;30667;43.614;1.442;2022-08-01T03:28:55;100203.41;;;23.32;89.60
44934;BME280;30667;43.614;1.442;2022-08-01T03:31:23;100204.13;;;23.29;89.76
44934;BME280;30667;43.614;1.442;2022-08-01T03:33:50;100196.91;;;23.24;89.89
44934;BME280;30667;43.614;1.442;2022-08-01T03:36:16;100197.28;;;23.23;90.60
44934;BME280;30667;43.614;1.442;2022-08-01T03:38:47;100199.31;;;23.26;90.10
44934;BME280;30667;43.614;1.442;2022-08-01T03:41:18;100192.03;;;23.17;91.07
44934;BME280;30667;43.614;1.442;2022-08-01T03:43:56;100198.28;;;23.14;91.25
44934;BME280;30667;43.614;1.442;2022-08-01T03:46:28;100191.44;;;23.08;91.91
44934;BME280;30667;43.614;1.442;2022-08-01T03:48:58;100186.44;;;22.98;93.09
44934;BME280;30667;43.614;1.442;2022-08-01T03:51:25;100182.84;;;22.97;93.05
44934;BME280;30667;43.614;1.442;2022-08-01T03:53:53;100190.34;;;22.97;93.82
44934;BME280;30667;43.614;1.442;2022-08-01T03:56:22;100184.81;;;22.97;93.69
44934;BME280;30667;43.614;1.442;2022-08-01T03:58:50;100185.53;;;22.94;94.15
44934;BME280;30667;43.614;1.442;2022-08-01T04:01:17;100187.25;;;22.82;95.40
44934;BME280;30667;43.614;1.442;2022-08-01T04:03:43;100187.44;;;22.90;95.06
44934;BME280;30667;43.614;1.442;2022-08-01T04:06:09;100192.03;;;22.85;95.47
44934;BME280;30667;43.614;1.442;2022-08-01T04:08:37;100191.50;;;22.80;95.99
44934;BME280;30667;43.614;1.442;2022-08-01T04:11:02;100186.81;;;22.80;96.30
44934;BME280;30667;43.614;1.442;2022-08-01T04:13:28;100187.50;;;22.77;96.76
44934;BME280;30667;43.614;1.442;2022-08-01T04:15:53;100190.19;;;22.74;97.14
44934;BME280;30667;43.614;1.442;2022-08-01T04:18:19;100190.44;;;22.68;97.48
44934;BME280;30667;43.614;1.442;2022-08-01T04:20:46;100192.31;;;22.64;98.18
44934;BME280;30667;43.614;1.442;2022-08-01T04:23:14;100199.06;;;22.67;98.24
44934;BME280;30667;43.614;1.442;2022-08-01T04:25:41;100202.09;;;22.62;99.05
44934;BME280;30667;43.614;1.442;2022-08-01T04:28:10;100206.25;;;22.56;99.65
44934;BME280;30667;43.614;1.442;2022-08-01T04:30:42;100202.00;;;22.58;99.79
44934;BME280;30667;43.614;1.442;2022-08-01T04:33:11;100200.09;;;22.46;100.00
44934;BME280;30667;43.614;1.442;2022-08-01T04:35:43;100209.56;;;22.45;100.00
44934;BME280;30667;43.614;1.442;2022-08-01T04:38:12;100208.28;;;22.43;100.00
44934;BME280;30667;43.614;1.442;2022-08-01T04:40:40;100210.59;;;22.41;100.00
44934;BME280;30667;43.614;1.442;2022-08-01T04:43:07;100209.47;;;22.42;100.00
44934;BME280;30667;43.614;1.442;2022-08-01T04:45:33;100208.63;;;22.41;100.00
44934;BME280;30667;43.614;1.442;2022-08-01T04:47:59;100214.41;;;22.36;100.00
44934;BME280;30667;43.614;1.442;2022-08-01T04:50:25;100222.13;;;22.30;100.00
44934;BME280;30667;43.614;1.442;2022-08-01T04:52:51;100220.53;;;22.29;100.00
44934;BME280;30667;43.614;1.442;2022-08-01T04:55:17;100223.88;;;22.23;100.00
44934;BME280;30667;43.614;1.442;2022-08-01T04:57:44;100222.88;;;22.15;100.00
44934;BME280;30667;43.614;1.442;2022-08-01T05:00:10;100227.78;;;22.22;100.00
44934;BME280;30667;43.614;1.442;2022-08-01T05:02:36;100230.97;;;22.24;100.00
44934;BME280;30667;43.614;1.442;2022-08-01T05:05:03;100235.13;;;22.18;100.00
44934;BME280;30667;43.614;1.442;2022-08-01T05:07:32;100231.50;;;22.13;100.00
44934;BME280;30667;43.614;1.442;2022-08-01T05:09:58;100233.59;;;22.04;100.00
44934;BME280;30667;43.614;1.442;2022-08-01T05:12:23;100237.03;;;22.01;100.00
44934;BME280;30667;43.614;1.442;2022-08-01T05:14:49;100241.50;;;22.06;100.00
44934;BME280;30667;43.614;1.442;2022-08-01T05:17:14;100234.72;;;22.03;100.00
44934;BME280;30667;43.614;1.442;2022-08-01T05:19:42;100244.59;;;22.04;100.00
44934;BME280;30667;43.614;1.442;2022-08-01T05:22:08;100238.84;;;22.09;100.00
44934;BME280;30667;43.614;1.442;2022-08-01T05:24:35;100247.00;;;22.06;100.00
44934;BME280;30667;43.614;1.442;2022-08-01T05:27:14;100251.97;;;22.00;100.00
44934;BME280;30667;43.614;1.442;2022-08-01T05:29:39;100249.19;;;22.00;100.00
44934;BME280;30667;43.614;1.442;2022-08-01T05:32:07;100251.50;;;21.98;100.00
44934;BME280;30667;43.614;1.442;2022-08-01T05:34:34;100255.44;;;21.97;100.00
44934;BME280;30667;43.614;1.442;2022-08-01T05:37:02;100257.94;;;22.02;100.00
44934;BME280;30667;43.614;1.442;2022-08-01T05:39:28;100247.38;;;22.04;100.00
44934;BME280;30667;43.614;1.442;2022-08-01T05:41:53;100254.16;;;22.07;100.00
44934;BME280;30667;43.614;1.442;2022-08-01T05:44:19;100259.84;;;22.14;100.00
44934;BME280;30667;43.614;1.442;2022-08-01T05:46:47;100256.03;;;22.19;100.00
44934;BME280;30667;43.614;1.442;2022-08-01T05:49:12;100255.94;;;22.15;100.00
44934;BME280;30667;43.614;1.442;2022-08-01T05:51:38;100258.53;;;22.24;100.00
44934;BME280;30667;43.614;1.442;2022-08-01T05:54:03;100260.16;;;22.25;100.00
44934;BME280;30667;43.614;1.442;2022-08-01T05:56:29;100259.00;;;22.26;100.00
44934;BME280;30667;43.614;1.442;2022-08-01T05:58:54;100261.53;;;22.31;100.00
44934;BME280;30667;43.614;1.442;2022-08-01T06:01:20;100271.50;;;22.36;100.00
44934;BME280;30667;43.614;1.442;2022-08-01T06:03:45;100264.03;;;22.36;100.00
44934;BME280;30667;43.614;1.442;2022-08-01T06:06:11;100271.34;;;22.44;100.00
44934;BME280;30667;43.614;1.442;2022-08-01T06:08:36;100272.88;;;22.42;100.00
44934;BME280;30667;43.614;1.442;2022-08-01T06:11:02;100272.97;;;22.45;100.00
44934;BME280;30667;43.614;1.442;2022-08-01T06:13:27;100270.56;;;22.44;100.00
44934;BME280;30667;43.614;1.442;2022-08-01T06:15:53;100280.44;;;22.45;100.00
44934;BME280;30667;43.614;1.442;2022-08-01T06:18:19;100274.19;;;22.48;100.00
44934;BME280;30667;43.614;1.442;2022-08-01T06:20:45;100272.78;;;22.54;100.00
44934;BME280;30667;43.614;1.442;2022-08-01T06:23:10;100279.13;;;22.55;100.00
44934;BME280;30667;43.614;1.442;2022-08-01T06:25:36;100267.63;;;22.53;100.00
44934;BME280;30667;43.614;1.442;2022-08-01T06:28:02;100278.31;;;22.54;100.00
44934;BME280;30667;43.614;1.442;2022-08-01T06:30:28;100270.31;;;22.65;100.00
44934;BME280;30667;43.614;1.442;2022-08-01T06:32:53;100277.00;;;22.64;100.00
44934;BME280;30667;43.614;1.442;2022-08-01T06:35:21;100271.22;;;22.69;100.00
44934;BME280;30667;43.614;1.442;2022-08-01T06:37:46;100272.47;;;22.72;100.00
44934;BME280;30667;43.614;1.442;2022-08-01T06:40:12;100274.44;;;22.71;100.00
44934;BME280;30667;43.614;1.442;2022-08-01T06:42:38;100273.91;;;22.81;99.64
44934;BME280;30667;43.614;1.442;2022-08-01T06:45:14;100272.13;;;22.89;99.58
44934;BME280;30667;43.614;1.442;2022-08-01T06:47:40;100272.41;;;23.00;98.19
44934;BME280;30667;43.614;1.442;2022-08-01T06:50:07;100283.44;;;23.00;97.85
44934;BME280;30667;43.614;1.442;2022-08-01T06:52:34;100283.19;;;23.05;97.53
44934;BME280;30667;43.614;1.442;2022-08-01T06:54:59;100276.34;;;23.15;96.98
44934;BME280;30667;43.614;1.442;2022-08-01T06:57:25;100282.06;;;23.22;96.75
44934;BME280;30667;43.614;1.442;2022-08-01T06:59:51;100283.91;;;23.18;95.23
44934;BME280;30667;43.614;1.442;2022-08-01T07:02:17;100288.00;;;23.24;94.96
44934;BME280;30667;43.614;1.442;2022-08-01T07:04:42;100288.81;;;23.25;95.55
44934;BME280;30667;43.614;1.442;2022-08-01T07:07:08;100286.94;;;23.29;95.29
44934;BME280;30667;43.614;1.442;2022-08-01T07:09:33;100286.84;;;23.41;95.39
44934;BME280;30667;43.614;1.442;2022-08-01T07:11:59;100288.69;;;23.53;93.12
44934;BME280;30667;43.614;1.442;2022-08-01T07:14:25;100294.94;;;23.50;93.28
44934;BME280;30667;43.614;1.442;2022-08-01T07:16:50;100291.09;;;23.54;92.08
44934;BME280;30667;43.614;1.442;2022-08-01T07:19:16;100289.22;;;23.58;91.43
44934;BME280;30667;43.614;1.442;2022-08-01T07:21:42;100285.91;;;23.69;90.69
44934;BME280;30667;43.614;1.442;2022-08-01T07:24:11;100292.97;;;23.66;89.58
44934;BME280;30667;43.614;1.442;2022-08-01T07:26:45;100289.75;;;23.64;90.19
44934;BME280;30667;43.614;1.442;2022-08-01T07:29:11;100281.19;;;23.69;89.93
44934;BME280;30667;43.614;1.442;2022-08-01T07:31:36;100288.72;;;23.72;89.81
44934;BME280;30667;43.614;1.442;2022-08-01T07:34:02;100287.66;;;23.77;89.78
44934;BME280;30667;43.614;1.442;2022-08-01T07:36:30;100283.19;;;23.88;89.45
44934;BME280;30667;43.614;1.442;2022-08-01T07:38:55;100286.56;;;23.98;88.21
44934;BME280;30667;43.614;1.442;2022-08-01T07:41:22;100280.00;;;24.06;87.55
44934;BME280;30667;43.614;1.442;2022-08-01T07:43:47;100290.81;;;24.11;86.57
44934;BME280;30667;43.614;1.442;2022-08-01T07:46:15;100286.25;;;24.03;86.89
44934;BME280;30667;43.614;1.442;2022-08-01T07:48:41;100288.41;;;24.09;86.89
44934;BME280;30667;43.614;1.442;2022-08-01T07:51:06;100292.19;;;24.21;86.20
44934;BME280;30667;43.614;1.442;2022-08-01T07:53:33;100288.75;;;24.27;85.67
44934;BME280;30667;43.614;1.442;2022-08-01T07:55:59;100290.19;;;24.41;84.84
44934;BME280;30667;43.614;1.442;2022-08-01T07:58:24;100283.16;;;24.43;84.48
44934;BME280;30667;43.614;1.442;2022-08-01T08:00:50;100282.84;;;24.48;83.52
44934;BME280;30667;43.614;1.442;2022-08-01T08:03:15;100280.88;;;24.49;82.88
44934;BME280;30667;43.614;1.442;2022-08-01T08:05:41;100282.84;;;24.48;83.09
44934;BME280;30667;43.614;1.442;2022-08-01T08:08:08;100279.72;;;24.50;81.42
44934;BME280;30667;43.614;1.442;2022-08-01T08:10:34;100285.13;;;24.62;81.36
44934;BME280;30667;43.614;1.442;2022-08-01T08:13:00;100282.34;;;24.62;81.56
44934;BME280;30667;43.614;1.442;2022-08-01T08:15:27;100275.72;;;24.67;80.98
44934;BME280;30667;43.614;1.442;2022-08-01T08:17:52;100286.44;;;24.69;79.32
44934;BME280;30667;43.614;1.442;2022-08-01T08:20:17;100280.22;;;24.75;78.69
44934;BME280;30667;43.614;1.442;2022-08-01T08:22:43;100274.75;;;24.79;79.08
44934;BME280;30667;43.614;1.442;2022-08-01T08:25:08;100278.94;;;24.92;78.91
44934;BME280;30667;43.614;1.442;2022-08-01T08:27:35;100284.22;;;25.01;77.62
44934;BME280;30667;43.614;1.442;2022-08-01T08:30:02;100270.97;;;25.14;76.38
44934;BME280;30667;43.614;1.442;2022-08-01T08:32:28;100278.19;;;25.18;75.69
44934;BME280;30667;43.614;1.442;2022-08-01T08:34:53;100277.03;;;25.19;74.33
44934;BME280;30667;43.614;1.442;2022-08-01T08:37:19;100278.22;;;25.22;74.71
44934;BME280;30667;43.614;1.442;2022-08-01T08:39:44;100268.25;;;25.17;74.77
44934;BME280;30667;43.614;1.442;2022-08-01T08:42:10;100266.00;;;25.23;75.19
44934;BME280;30667;43.614;1.442;2022-08-01T08:44:36;100272.09;;;25.32;74.70
44934;BME280;30667;43.614;1.442;2022-08-01T08:47:05;100270.19;;;25.36;74.89
44934;BME280;30667;43.614;1.442;2022-08-01T08:49:31;100267.94;;;25.46;73.59
44934;BME280;30667;43.614;1.442;2022-08-01T08:52:01;100271.22;;;25.51;73.24
44934;BME280;30667;43.614;1.442;2022-08-01T08:54:28;100271.22;;;25.51;72.43
44934;BME280;30667;43.614;1.442;2022-08-01T08:56:55;100261.72;;;25.52;72.26
44934;BME280;30667;43.614;1.442;2022-08-01T08:59:21;100270.13;;;25.60;72.11
44934;BME280;30667;43.614;1.442;2022-08-01T09:07:45;100256.69;;;25.62;71.60
44934;BME280;30667;43.614;1.442;2022-08-01T09:10:11;100257.13;;;25.64;71.66
44934;BME280;30667;43.614;1.442;2022-08-01T09:12:37;100257.69;;;25.77;71.42
44934;BME280;30667;43.614;1.442;2022-08-01T09:15:02;100250.09;;;25.70;70.34
44934;BME280;30667;43.614;1.442;2022-08-01T09:17:39;100248.53;;;25.72;70.64
44934;BME280;30667;43.614;1.442;2022-08-01T09:20:05;100252.66;;;25.86;69.55
44934;BME280;30667;43.614;1.442;2022-08-01T09:22:33;100255.81;;;25.84;69.13
44934;BME280;30667;43.614;1.442;2022-08-01T09:27:27;100244.94;;;25.99;68.72
44934;BME280;30667;43.614;1.442;2022-08-01T09:29:53;100244.59;;;26.04;68.41
44934;BME280;30667;43.614;1.442;2022-08-01T09:32:19;100243.53;;;26.12;67.92
44934;BME280;30667;43.614;1.442;2022-08-01T09:34:45;100240.78;;;26.16;67.32
44934;BME280;30667;43.614;1.442;2022-08-01T09:37:12;100243.56;;;26.16;67.43
44934;BME280;30667;43.614;1.442;2022-08-01T09:39:42;100241.13;;;26.10;66.86
44934;BME280;30667;43.614;1.442;2022-08-01T09:42:23;100235.25;;;26.16;67.48
44934;BME280;30667;43.614;1.442;2022-08-01T09:44:49;100235.69;;;26.21;66.48
44934;BME280;30667;43.614;1.442;2022-08-01T09:47:15;100242.13;;;26.29;67.07
44934;BME280;30667;43.614;1.442;2022-08-01T09:49:43;100236.94;;;26.27;66.63
44934;BME280;30667;43.614;1.442;2022-08-01T09:52:18;100239.72;;;26.27;66.99
44934;BME280;30667;43.614;1.442;2022-08-01T09:54:57;100231.88;;;26.33;65.50
44934;BME280;30667;43.614;1.442;2022-08-01T09:57:24;100234.31;;;26.42;65.78
44934;BME280;30667;43.614;1.442;2022-08-01T09:59:52;100231.91;;;26.37;65.62
44934;BME280;30667;43.614;1.442;2022-08-01T10:04:55;100237.53;;;26.44;64.39
44934;BME280;30667;43.614;1.442;2022-08-01T10:07:21;100234.81;;;26.51;64.72
44934;BME280;30667;43.614;1.442;2022-08-01T10:09:47;100237.69;;;26.58;63.72
44934;BME280;30667;43.614;1.442;2022-08-01T10:12:19;100232.50;;;26.57;64.88
44934;BME280;30667;43.614;1.442;2022-08-01T10:14:47;100230.31;;;26.73;63.28
44934;BME280;30667;43.614;1.442;2022-08-01T10:17:17;100227.47;;;26.66;64.31
44934;BME280;30667;43.614;1.442;2022-08-01T10:19:43;100233.78;;;26.63;65.01
44934;BME280;30667;43.614;1.442;2022-08-01T10:22:13;100224.59;;;26.59;64.92
44934;BME280;30667;43.614;1.442;2022-08-01T10:24:43;100218.75;;;26.68;63.79
44934;BME280;30667;43.614;1.442;2022-08-01T10:27:10;100224.78;;;26.77;63.46
44934;BME280;30667;43.614;1.442;2022-08-01T10:29:57;100216.78;;;26.68;63.53
44934;BME280;30667;43.614;1.442;2022-08-01T10:32:34;100214.44;;;26.74;62.63
44934;BME280;30667;43.614;1.442;2022-08-01T10:35:06;100207.66;;;26.68;63.84
44934;BME280;30667;43.614;1.442;2022-08-01T10:37:34;100212.63;;;26.92;61.90
44934;BME280;30667;43.614;1.442;2022-08-01T10:40:00;100195.88;;;26.81;62.19
44934;BME280;30667;43.614;1.442;2022-08-01T10:42:26;100199.81;;;26.80;63.03
44934;BME280;30667;43.614;1.442;2022-08-01T10:44:53;100203.22;;;27.08;61.09
44934;BME280;30667;43.614;1.442;2022-08-01T10:47:35;100203.25;;;27.11;60.72
44934;BME280;30667;43.614;1.442;2022-08-01T10:58:36;100180.34;;;26.70;63.62
44934;BME280;30667;43.614;1.442;2022-08-01T11:10:42;100179.03;;;27.12;60.74
44934;BME280;30667;43.614;1.442;2022-08-01T11:29:29;100158.84;;;27.15;60.95
44934;BME280;30667;43.614;1.442;2022-08-01T11:32:23;100158.75;;;27.04;61.05
44934;BME280;30667;43.614;1.442;2022-08-01T11:34:55;100158.56;;;27.31;58.88
44934;BME280;30667;43.614;1.442;2022-08-01T11:57:19;100132.19;;;27.07;61.23
44934;BME280;30667;43.614;1.442;2022-08-01T11:59:47;100132.88;;;26.86;63.84
44934;BME280;30667;43.614;1.442;2022-08-01T12:02:28;100132.91;;;26.96;60.52
44934;BME280;30667;43.614;1.442;2022-08-01T12:05:01;100123.81;;;26.99;62.03
44934;BME280;30667;43.614;1.442;2022-08-01T12:07:29;100127.69;;;26.84;63.92
44934;BME280;30667;43.614;1.442;2022-08-01T12:10:00;100122.91;;;26.77;63.93
44934;BME280;30667;43.614;1.442;2022-08-01T12:12:27;100115.09;;;27.01;60.68
44934;BME280;30667;43.614;1.442;2022-08-01T12:14:58;100117.44;;;26.92;61.04
44934;BME280;30667;43.614;1.442;2022-08-01T12:20:09;100114.00;;;27.16;58.86
44934;BME280;30667;43.614;1.442;2022-08-01T12:22:34;100109.31;;;27.28;58.77
44934;BME280;30667;43.614;1.442;2022-08-01T12:25:08;100110.47;;;27.23;59.94
44934;BME280;30667;43.614;1.442;2022-08-01T12:27:34;100110.31;;;26.94;62.55
44934;BME280;30667;43.614;1.442;2022-08-01T12:30:01;100107.81;;;26.78;64.97
44934;BME280;30667;43.614;1.442;2022-08-01T12:32:32;100106.84;;;27.12;60.53
44934;BME280;30667;43.614;1.442;2022-08-01T12:35:03;100099.78;;;27.25;58.73
44934;BME280;30667;43.614;1.442;2022-08-01T12:37:29;100105.38;;;27.36;54.98
44934;BME280;30667;43.614;1.442;2022-08-01T12:39:55;100100.13;;;27.20;58.02
44934;BME280;30667;43.614;1.442;2022-08-01T12:42:21;100103.75;;;27.28;55.40
44934;BME280;30667;43.614;1.442;2022-08-01T12:44:50;100098.19;;;27.28;57.61
44934;BME280;30667;43.614;1.442;2022-08-01T12:47:18;100095.66;;;26.97;61.96
44934;BME280;30667;43.614;1.442;2022-08-01T12:49:44;100088.47;;;26.93;62.95
44934;BME280;30667;43.614;1.442;2022-08-01T12:52:11;100088.06;;;26.87;64.15
44934;BME280;30667;43.614;1.442;2022-08-01T12:55:12;100089.06;;;27.27;58.80
44934;BME280;30667;43.614;1.442;2022-08-01T12:57:41;100082.06;;;27.55;53.58
44934;BME280;30667;43.614;1.442;2022-08-01T13:00:19;100079.84;;;27.12;59.08
44934;BME280;30667;43.614;1.442;2022-08-01T13:02:46;100073.91;;;27.10;57.52
44934;BME280;30667;43.614;1.442;2022-08-01T13:05:15;100077.41;;;28.09;49.08
44934;BME280;30667;43.614;1.442;2022-08-01T13:07:49;100072.53;;;27.63;55.45
44934;BME280;30667;43.614;1.442;2022-08-01T13:10:25;100076.47;;;27.48;56.75
44934;BME280;30667;43.614;1.442;2022-08-01T13:12:53;100073.56;;;27.26;59.29
44934;BME280;30667;43.614;1.442;2022-08-01T13:15:40;100077.97;;;27.27;57.75
44934;BME280;30667;43.614;1.442;2022-08-01T13:18:26;100077.91;;;27.20;53.03
44934;BME280;30667;43.614;1.442;2022-08-01T13:21:17;100066.00;;;27.16;58.60
44934;BME280;30667;43.614;1.442;2022-08-01T13:24:11;100057.56;;;26.94;62.33
44934;BME280;30667;43.614;1.442;2022-08-01T13:29:11;100054.53;;;27.28;59.21
44934;BME280;30667;43.614;1.442;2022-08-01T13:31:38;100050.47;;;27.04;60.27
44934;BME280;30667;43.614;1.442;2022-08-01T13:34:04;100062.84;;;27.25;56.09
44934;BME280;30667;43.614;1.442;2022-08-01T13:36:30;100055.72;;;27.24;58.45
44934;BME280;30667;43.614;1.442;2022-08-01T13:38:57;100057.69;;;27.23;58.65
44934;BME280;30667;43.614;1.442;2022-08-01T13:41:41;100057.25;;;27.14;60.44
44934;BME280;30667;43.614;1.442;2022-08-01T13:44:07;100044.19;;;27.18;60.19
44934;BME280;30667;43.614;1.442;2022-08-01T13:46:34;100037.34;;;26.94;63.39
44934;BME280;30667;43.614;1.442;2022-08-01T13:49:02;100041.81;;;27.20;54.94
44934;BME280;30667;43.614;1.442;2022-08-01T13:51:27;100048.84;;;28.02;49.56
44934;BME280;30667;43.614;1.442;2022-08-01T13:53:53;100041.16;;;27.48;57.86
44934;BME280;30667;43.614;1.442;2022-08-01T13:56:18;100035.84;;;27.22;60.40
44934;BME280;30667;43.614;1.442;2022-08-01T13:58:45;100036.75;;;27.47;55.55
44934;BME280;30667;43.614;1.442;2022-08-01T14:01:10;100043.59;;;27.82;54.06
44934;BME280;30667;43.614;1.442;2022-08-01T14:03:36;100035.69;;;27.95;47.75
44934;BME280;30667;43.614;1.442;2022-08-01T14:06:02;100037.28;;;28.03;52.05
44934;BME280;30667;43.614;1.442;2022-08-01T14:08:27;100028.50;;;27.65;55.12
44934;BME280;30667;43.614;1.442;2022-08-01T14:10:53;100029.59;;;27.39;54.92